Airfield :
LOGIN :

Register | Disclaimer

   EN    FR    IT 

 










Legend :    VFR   Marginal VFR   IFR   Intensive IFR   Very Intensive IFR
Visi :
Ceiling :
>= 8 km
>= 3000ft
5 to 8 km
1000 to 3000 ft
1500m to 5 km
500 to 1000 ft
800 to 1500m
200 to 500 ft
< 800m
< 200 ft
Symbols :   Thunderstorms  Fog  Heavy snow  Heavy precipitations  Wind > 20 kt
SIGMETs :     Misc.  Thunderstorms  Icing  Turbulence  Mountain Waves  Volcanic Ashes






- Airport Elevation : 364 ft


LFAQ - Albert Bray

CURRENT METAR :
  • 021400Z AUTO 28015KT 9999 OVC016 09/07 Q1028 NOSIG

EXPIRED METARs :
  • 021330Z AUTO 28016KT 9999 BKN016 OVC021 09/07 Q1028 NOSIG
  • 021300Z AUTO 28013KT 9999 BKN018 OVC024 09/07 Q1029 NOSIG
  • 021230Z AUTO 28013KT 9999 OVC023 09/06 Q1029 NOSIG
  • 021200Z AUTO 29016KT 9999 BKN028 OVC035 10/05 Q1029 NOSIG
  • 021130Z AUTO 28014KT 9999 FEW030 BKN037 10/05 Q1029 TEMPO BKN013

TAF TAF LFAQ
Valid from the 02 at 12:00 until the 02 at 21:00 UTC


021100Z 0212/0221 26010KT 9999 SCT020 BKN040



MET'MAP, your aeronautical weather chart ! - Copyright ORBIFLY December 2007 - Disclaimer

ORBIFLY MET'MAP TEAM :

Programming & Development : Alexandra Zaïnal
Original concept : Baudouin d'Aumeries
Technical & hardware support : Manuel Goepfert
Assistance : Marc-Olivier Méhu




SOURCES & CREDITS :

   NOAA